Burewala Weather



Burewala's Current Weather

Temprature 30.45o clear sky

clear sky

Rain: 0 %

Min Temprature30.45o
Max Temprature30.45o
Humidity36
Wind Speed0.88 m/h
Sun Rise05:40:54
Sun Set18:43:39
Current Time: 23-Aug-2019 06:07:55
Lat/Lon: 30.16, 72.68




Burewala's Geo Location



Burewala's Weather Forecast

Time Overall Temp Min Temp Max Temp Humidity Wind Speed Rain
23-Aug-2019 (Fri)
08:00:00 clear sky 34.500 34.497 34.500 32 4.16 m/h 0 %
11:00:00 scattered clouds 39.850 39.850 39.850 24 4.79 m/h 0 %
14:00:00 few clouds 42.430 42.430 42.431 17 3.28 m/h 0 %
17:00:00 broken clouds 39.910 39.910 39.911 21 4.7 m/h 0 %
20:00:00 scattered clouds 36.050 36.050 36.050 26 3.86 m/h 0 %
23:00:00 few clouds 34.942 34.942 34.942 27 4.53 m/h 0 %
24-Aug-2019 (Sat)
02:00:00 clear sky 33.331 33.331 33.331 31 4.53 m/h 0 %
05:00:00 clear sky 31.655 31.655 31.655 34 3.85 m/h 0 %
08:00:00 clear sky 34.807 34.807 34.807 33 6.33 m/h 0 %
11:00:00 clear sky 40.169 40.169 40.169 25 6.9 m/h 0 %
14:00:00 clear sky 43.269 43.269 43.269 17 6.16 m/h 0 %
17:00:00 scattered clouds 40.823 40.823 40.823 20 5.32 m/h 0 %
20:00:00 clear sky 36.750 36.750 36.750 24 4.7 m/h 0 %
23:00:00 clear sky 34.969 34.969 34.969 26 4.62 m/h 0 %
25-Aug-2019 (Sun)
02:00:00 clear sky 33.331 33.331 33.331 30 4.83 m/h 0 %
05:00:00 clear sky 31.857 31.857 31.857 30 5.51 m/h 0 %
08:00:00 clear sky 34.814 34.814 34.814 33 5.83 m/h 0 %
11:00:00 clear sky 40.216 40.216 40.216 26 7.54 m/h 0 %
14:00:00 clear sky 43.850 43.850 43.850 16 4.85 m/h 0 %
17:00:00 scattered clouds 41.450 41.450 41.450 19 5.08 m/h 0 %
20:00:00 broken clouds 37.981 37.981 37.981 22 5.07 m/h 0 %
23:00:00 scattered clouds 35.411 35.411 35.411 26 4.9 m/h 0 %
26-Aug-2019 (Mon)
02:00:00 scattered clouds 33.065 33.065 33.065 32 0.73 m/h 0 %
05:00:00 few clouds 31.950 31.950 31.950 35 2.96 m/h 0 %
08:00:00 clear sky 35.667 35.667 35.667 31 4.27 m/h 0 %
11:00:00 scattered clouds 40.872 40.872 40.872 22 2.75 m/h 0 %
14:00:00 broken clouds 43.984 43.984 43.984 16 3.1 m/h 0 %
17:00:00 broken clouds 43.220 43.220 43.220 15 1.84 m/h 0 %
20:00:00 broken clouds 37.072 37.072 37.072 24 1.67 m/h 0 %
23:00:00 scattered clouds 35.014 35.014 35.014 39 4.73 m/h 0 %
27-Aug-2019 (Tue)
02:00:00 overcast clouds 33.916 33.916 33.916 42 4.83 m/h 0 %
05:00:00 overcast clouds 32.450 32.450 32.450 50 3.74 m/h 0 %
08:00:00 overcast clouds 34.835 34.835 34.835 45 5.51 m/h 0 %
11:00:00 scattered clouds 40.236 40.236 40.236 29 4.35 m/h 0 %
14:00:00 scattered clouds 40.936 40.936 40.936 26 2.76 m/h 0 %
17:00:00 broken clouds 40.365 40.365 40.365 27 4.76 m/h 0 %
20:00:00 light rain 35.750 35.750 35.750 37 2.34 m/h 19 %
23:00:00 few clouds 34.150 34.150 34.150 43 2.88 m/h 0 %
28-Aug-2019 (Wed)
02:00:00 few clouds 32.957 32.957 32.957 48 2.76 m/h 0 %
05:00:00 clear sky 32.072 32.072 32.072 51 1.74 m/h 0 %


Burewala's Tourist Spots

Historical Places in Burewala

Famous Cities (61)